Time;durP1;ratioP1;P1;durP2;ratioP2;P2;SDS_P1;SDS_P2;PMS_P1;PMS_P2;Temp;Humidity;BMP_temperature;BMP_pressure;BME280_temperature;BME280_humidity;BME280_pressure;Samples;Min_cycle;Max_cycle;Signal;HPM_P1;HPM_P2
2022/07/10 00:00:43;;;;;;;0.00;0.00;;;16.10;99.90;;;;;;4986930;28;20169;-70
2022/07/10 00:03:10;;;;;;;0.20;0.20;;;16.20;99.90;;;;;;4984519;28;20046;-70
2022/07/10 00:05:37;;;;;;;0.45;0.13;;;16.20;99.90;;;;;;4986335;28;20240;-67
2022/07/10 00:08:04;;;;;;;0.17;0.17;;;16.20;99.90;;;;;;4986043;28;20061;-67
2022/07/10 00:10:33;;;;;;;0.68;0.25;;;16.30;99.90;;;;;;4986910;28;20516;-65
2022/07/10 00:13:00;;;;;;;0.50;0.32;;;16.30;99.90;;;;;;4983812;28;20153;-67
2022/07/10 00:15:27;;;;;;;0.55;0.35;;;16.30;99.90;;;;;;4985606;28;20054;-71
2022/07/10 00:17:54;;;;;;;0.88;0.47;;;16.30;99.90;;;;;;4986930;28;20147;-65
2022/07/10 00:20:21;;;;;;;0.80;0.13;;;16.30;99.90;;;;;;4984878;28;20720;-67
2022/07/10 00:22:48;;;;;;;0.47;0.10;;;16.30;99.90;;;;;;4984602;28;20136;-67
2022/07/10 00:25:15;;;;;;;0.32;0.28;;;16.30;99.90;;;;;;4984618;28;20139;-69
2022/07/10 00:27:42;;;;;;;0.20;0.10;;;16.30;99.90;;;;;;4984430;28;20050;-70
2022/07/10 00:30:11;;;;;;;0.10;0.10;;;16.30;99.90;;;;;;4987544;28;20137;-68
2022/07/10 00:32:38;;;;;;;1.25;0.20;;;16.30;99.90;;;;;;4989652;28;20144;-67
2022/07/10 00:35:06;;;;;;;0.43;0.20;;;16.30;99.90;;;;;;4988589;28;20073;-73
2022/07/10 00:37:33;;;;;;;1.92;0.03;;;16.40;99.90;;;;;;4987266;28;20049;-68
2022/07/10 00:40:00;;;;;;;0.25;0.17;;;16.40;99.90;;;;;;4988169;28;20147;-68
2022/07/10 00:42:27;;;;;;;0.10;0.10;;;16.40;99.90;;;;;;4988948;28;20487;-71
2022/07/10 00:44:54;;;;;;;0.10;0.10;;;16.40;99.90;;;;;;4988419;28;20070;-63
2022/07/10 00:47:21;;;;;;;0.15;0.15;;;16.40;99.90;;;;;;4987707;28;20735;-66
2022/07/10 00:49:48;;;;;;;0.13;0.10;;;16.40;99.90;;;;;;4987661;28;20119;-66
2022/07/10 00:52:17;;;;;;;0.30;0.10;;;16.50;99.90;;;;;;4982189;28;20046;-65
2022/07/10 00:54:47;;;;;;;0.40;0.40;;;16.50;99.90;;;;;;4970731;28;21374;-64
2022/07/10 00:57:15;;;;;;;0.87;0.00;;;16.50;99.90;;;;;;4983791;28;20136;-71
2022/07/10 00:59:43;;;;;;;0.80;0.13;;;16.50;99.90;;;;;;4989632;28;20054;-67
2022/07/10 01:02:11;;;;;;;0.65;0.10;;;16.60;99.90;;;;;;4988267;28;20175;-67
2022/07/10 01:04:38;;;;;;;0.10;0.10;;;16.60;99.90;;;;;;4989838;28;20058;-67
2022/07/10 01:07:05;;;;;;;0.20;0.00;;;16.60;99.90;;;;;;4989967;28;20129;-65
2022/07/10 01:09:33;;;;;;;0.30;0.03;;;16.60;99.90;;;;;;4989620;28;20519;-68
2022/07/10 01:12:02;;;;;;;0.00;0.00;;;16.60;99.90;;;;;;4988794;28;20135;-65
2022/07/10 01:14:30;;;;;;;0.00;0.00;;;16.60;99.90;;;;;;4990639;28;20062;-67
2022/07/10 01:17:00;;;;;;;2.55;0.50;;;16.60;99.90;;;;;;4989872;28;20049;-67
2022/07/10 01:19:27;;;;;;;0.47;0.08;;;16.60;99.90;;;;;;4988343;28;20166;-68
2022/07/10 01:21:54;;;;;;;1.60;0.10;;;16.60;99.90;;;;;;4989915;28;20133;-65
2022/07/10 01:24:21;;;;;;;1.98;0.15;;;16.60;99.90;;;;;;4989875;28;20108;-69
2022/07/10 01:26:48;;;;;;;0.10;0.10;;;16.60;99.90;;;;;;4988507;28;20164;-68
2022/07/10 01:29:15;;;;;;;0.00;0.00;;;16.60;99.90;;;;;;4988321;28;20073;-64
2022/07/10 01:31:42;;;;;;;0.40;0.10;;;16.60;99.90;;;;;;4989683;28;20825;-65
2022/07/10 01:34:09;;;;;;;0.20;0.00;;;16.60;99.90;;;;;;4989396;28;20049;-64
2022/07/10 01:36:37;;;;;;;0.00;0.00;;;16.60;99.90;;;;;;4990308;28;20132;-67
2022/07/10 01:39:05;;;;;;;0.00;0.00;;;16.60;99.90;;;;;;4989856;28;20052;-67
2022/07/10 01:41:33;;;;;;;0.00;0.00;;;16.60;99.90;;;;;;4987859;28;20084;-67
2022/07/10 01:44:00;;;;;;;1.85;0.10;;;16.60;99.90;;;;;;4989918;28;20135;-66
2022/07/10 01:46:27;;;;;;;0.82;0.63;;;16.60;99.90;;;;;;4988213;28;20054;-70
2022/07/10 01:48:55;;;;;;;2.53;0.00;;;16.60;99.90;;;;;;4987460;28;20358;-69
2022/07/10 01:51:22;;;;;;;0.17;0.10;;;16.60;99.90;;;;;;4987325;28;20054;-66
2022/07/10 01:53:49;;;;;;;1.75;0.10;;;16.60;99.90;;;;;;4988904;28;20077;-67
2022/07/10 01:56:16;;;;;;;0.15;0.10;;;16.60;99.90;;;;;;4987537;28;20153;-68
2022/07/10 01:58:43;;;;;;;0.00;0.00;;;16.60;99.90;;;;;;4987575;28;20605;-68
2022/07/10 02:01:11;;;;;;;0.10;0.10;;;16.50;99.90;;;;;;4987169;28;20050;-69
2022/07/10 02:06:24;;;;;;;0.35;0.35;;;16.50;99.90;;;;;;4987891;28;20115;-63
2022/07/10 02:08:51;;;;;;;0.03;0.03;;;16.50;99.90;;;;;;4988461;28;20120;-70
2022/07/10 02:11:18;;;;;;;0.35;0.30;;;16.50;99.90;;;;;;4986215;28;20129;-68
2022/07/10 02:13:45;;;;;;;0.25;0.10;;;16.50;99.90;;;;;;4988685;28;20057;-68
2022/07/10 02:16:13;;;;;;;0.10;0.10;;;16.50;99.90;;;;;;4988052;28;20046;-68
2022/07/10 02:18:40;;;;;;;0.03;0.03;;;16.50;99.90;;;;;;4988741;28;20057;-65
2022/07/10 02:21:08;;;;;;;0.00;0.00;;;16.50;99.90;;;;;;4985198;28;20135;-67
2022/07/10 02:23:35;;;;;;;0.38;0.10;;;16.50;99.90;;;;;;4979137;28;20057;-64
2022/07/10 02:26:03;;;;;;;0.10;0.10;;;16.50;99.90;;;;;;4988451;28;20160;-67
2022/07/10 02:28:30;;;;;;;0.10;0.10;;;16.50;99.90;;;;;;4988166;28;20120;-68
2022/07/10 02:30:57;;;;;;;0.10;0.10;;;16.40;99.90;;;;;;4986998;28;20042;-66
2022/07/10 02:33:24;;;;;;;0.10;0.10;;;16.40;99.90;;;;;;4986778;28;20165;-66
2022/07/10 02:35:51;;;;;;;0.13;0.10;;;16.40;99.90;;;;;;4988840;28;20058;-67
2022/07/10 02:38:18;;;;;;;0.05;0.00;;;16.40;99.90;;;;;;4989148;28;20578;-64
2022/07/10 02:40:45;;;;;;;0.40;0.25;;;16.40;99.90;;;;;;4989312;28;20061;-66
2022/07/10 02:43:14;;;;;;;1.50;0.20;;;16.40;99.90;;;;;;4984407;28;21779;-64
2022/07/10 02:45:41;;;;;;;0.28;0.10;;;16.30;99.90;;;;;;4987689;28;20042;-67
2022/07/10 02:48:15;;;;;;;0.88;0.00;;;16.30;99.90;;;;;;4988031;28;20149;-70
2022/07/10 02:50:42;;;;;;;0.32;0.10;;;16.30;99.90;;;;;;4986966;28;20140;-69
2022/07/10 02:53:08;;;;;;;2.10;0.20;;;16.30;99.90;;;;;;4985891;28;20648;-65
2022/07/10 02:55:35;;;;;;;0.20;0.20;;;16.30;99.90;;;;;;4988413;28;20136;-67
2022/07/10 02:58:03;;;;;;;0.57;0.10;;;16.30;99.90;;;;;;4984271;28;20053;-72
2022/07/10 03:00:30;;;;;;;0.98;0.10;;;16.30;99.90;;;;;;4987250;28;20049;-66
2022/07/10 03:02:57;;;;;;;0.90;0.10;;;16.30;99.90;;;;;;4987664;28;20053;-69
2022/07/10 03:05:24;;;;;;;0.55;0.25;;;16.30;99.90;;;;;;4986083;28;20070;-70
2022/07/10 03:07:51;;;;;;;0.10;0.10;;;16.20;99.90;;;;;;4986351;28;20902;-67
2022/07/10 03:10:19;;;;;;;0.63;0.13;;;16.20;99.90;;;;;;4988177;28;20143;-68
2022/07/10 03:12:46;;;;;;;1.13;0.00;;;16.30;99.90;;;;;;4986887;28;20050;-65
2022/07/10 03:15:14;;;;;;;0.10;0.05;;;16.30;99.90;;;;;;4986520;28;20165;-67
2022/07/10 03:17:41;;;;;;;0.75;0.28;;;16.20;99.90;;;;;;4986799;28;20054;-68
2022/07/10 03:20:09;;;;;;;0.28;0.20;;;16.20;99.90;;;;;;4988117;28;20062;-66
2022/07/10 03:22:36;;;;;;;0.22;0.10;;;16.20;99.90;;;;;;4986907;28;20085;-66
2022/07/10 03:25:04;;;;;;;0.05;0.05;;;16.20;99.90;;;;;;4987848;28;20065;-64
2022/07/10 03:27:31;;;;;;;0.75;0.10;;;16.20;99.90;;;;;;4985932;28;20215;-72
2022/07/10 03:29:58;;;;;;;0.10;0.10;;;16.20;99.90;;;;;;4986598;28;20062;-63
2022/07/10 03:32:25;;;;;;;0.03;0.00;;;16.20;99.90;;;;;;4987144;28;20145;-67
2022/07/10 03:34:51;;;;;;;0.45;0.20;;;16.20;99.90;;;;;;4988226;28;20049;-70
2022/07/10 03:37:19;;;;;;;1.58;0.10;;;16.20;99.90;;;;;;4985602;28;20053;-67
2022/07/10 03:39:45;;;;;;;0.10;0.10;;;16.20;99.90;;;;;;4986098;28;20057;-67
2022/07/10 03:42:12;;;;;;;0.50;0.10;;;16.20;99.90;;;;;;4985130;28;20144;-71
2022/07/10 03:44:39;;;;;;;1.55;0.10;;;16.30;99.90;;;;;;4987278;28;20218;-65
2022/07/10 03:47:07;;;;;;;0.10;0.05;;;16.30;99.90;;;;;;4983865;28;20058;-63
2022/07/10 03:49:34;;;;;;;0.00;0.00;;;16.40;99.90;;;;;;4987460;28;20056;-65
2022/07/10 03:52:02;;;;;;;0.00;0.00;;;16.50;99.90;;;;;;4986871;28;20139;-68
2022/07/10 03:54:29;;;;;;;0.40;0.00;;;16.50;99.90;;;;;;4987401;28;20449;-64
2022/07/10 03:59:43;;;;;;;0.57;0.25;;;16.60;99.90;;;;;;4982841;28;21444;-65
2022/07/10 04:02:11;;;;;;;0.15;0.13;;;16.70;99.90;;;;;;4982018;28;20168;-68
2022/07/10 04:04:38;;;;;;;0.28;0.00;;;16.60;99.90;;;;;;4993078;28;20065;-64
2022/07/10 04:07:05;;;;;;;2.65;0.10;;;16.80;99.90;;;;;;4993533;28;20100;-70
2022/07/10 04:09:33;;;;;;;0.10;0.05;;;16.80;99.90;;;;;;4992596;28;20054;-71
2022/07/10 04:11:59;;;;;;;2.15;0.28;;;16.80;99.90;;;;;;4993381;28;20061;-65
2022/07/10 04:14:26;;;;;;;0.57;0.20;;;16.70;99.90;;;;;;4992936;28;20058;-65
2022/07/10 04:16:53;;;;;;;0.73;0.00;;;16.80;99.90;;;;;;4992808;28;20173;-70
2022/07/10 04:19:21;;;;;;;0.60;0.28;;;16.80;99.90;;;;;;4992584;28;20053;-63
2022/07/10 04:21:48;;;;;;;0.60;0.10;;;16.80;99.90;;;;;;4994125;28;20061;-63
2022/07/10 04:24:16;;;;;;;1.55;0.17;;;16.80;99.90;;;;;;4993762;28;20050;-68
2022/07/10 04:26:43;;;;;;;0.22;0.15;;;16.80;99.90;;;;;;4990516;28;20114;-67
2022/07/10 04:29:10;;;;;;;0.63;0.10;;;16.70;99.90;;;;;;4979251;28;20065;-66
2022/07/10 04:31:37;;;;;;;0.60;0.10;;;16.70;99.90;;;;;;4975905;28;20136;-71
2022/07/10 04:34:04;;;;;;;0.57;0.10;;;16.80;99.90;;;;;;4986382;28;20058;-69
2022/07/10 04:36:31;;;;;;;0.05;0.00;;;16.80;99.90;;;;;;4992889;28;20866;-66
2022/07/10 04:39:00;;;;;;;0.10;0.10;;;16.80;99.90;;;;;;4992461;28;20068;-71
2022/07/10 04:41:27;;;;;;;3.13;0.40;;;16.80;99.90;;;;;;4990402;28;20058;-71
2022/07/10 04:43:53;;;;;;;1.50;0.10;;;16.80;99.90;;;;;;4994047;28;20410;-66
2022/07/10 04:46:20;;;;;;;0.10;0.10;;;16.80;99.90;;;;;;4993077;28;20057;-70
2022/07/10 04:48:48;;;;;;;1.25;0.00;;;16.80;99.90;;;;;;4993107;28;20088;-64
2022/07/10 04:51:14;;;;;;;0.40;0.00;;;16.90;99.90;;;;;;4991358;28;20139;-64
2022/07/10 04:53:41;;;;;;;1.65;0.10;;;17.00;99.90;;;;;;4993027;28;20094;-69
2022/07/10 04:56:08;;;;;;;0.40;0.10;;;16.90;99.90;;;;;;4993142;28;20057;-67
2022/07/10 04:58:35;;;;;;;0.00;0.00;;;16.90;99.90;;;;;;4992629;28;20527;-72
2022/07/10 05:01:03;;;;;;;1.85;1.42;;;16.90;99.90;;;;;;4981156;28;20053;-72
2022/07/10 05:03:30;;;;;;;0.85;0.10;;;16.90;99.90;;;;;;4979222;28;20157;-63
2022/07/10 05:05:57;;;;;;;0.65;0.10;;;16.90;99.90;;;;;;4993185;28;20050;-68
2022/07/10 05:08:24;;;;;;;0.00;0.00;;;17.00;99.90;;;;;;4990983;28;20137;-67
2022/07/10 05:10:51;;;;;;;1.15;0.38;;;16.90;99.90;;;;;;4992695;28;20526;-65
2022/07/10 05:13:18;;;;;;;0.00;0.00;;;16.90;99.90;;;;;;4988356;28;20101;-68
2022/07/10 05:15:48;;;;;;;0.00;0.00;;;16.90;99.90;;;;;;4989895;28;20058;-66
2022/07/10 05:18:15;;;;;;;0.00;0.00;;;16.90;99.90;;;;;;4989716;28;20050;-63
2022/07/10 05:20:43;;;;;;;0.00;0.00;;;16.90;99.90;;;;;;4990215;28;20077;-68
2022/07/10 05:23:11;;;;;;;0.57;0.10;;;16.90;99.90;;;;;;4987720;28;20056;-70
2022/07/10 05:25:38;;;;;;;0.00;0.00;;;16.90;99.90;;;;;;4990120;28;20599;-65
2022/07/10 05:28:05;;;;;;;0.00;0.00;;;16.90;99.90;;;;;;4988779;28;20062;-65
2022/07/10 05:30:33;;;;;;;0.00;0.00;;;16.90;99.90;;;;;;4989619;28;20062;-71
2022/07/10 05:33:00;;;;;;;0.00;0.00;;;16.90;99.90;;;;;;4988282;28;20120;-68
2022/07/10 05:35:27;;;;;;;0.25;0.13;;;16.90;99.90;;;;;;4988617;28;20198;-68
2022/07/10 05:37:54;;;;;;;0.20;0.20;;;16.80;99.90;;;;;;4988074;28;20085;-72
2022/07/10 05:40:21;;;;;;;0.30;0.30;;;16.70;99.90;;;;;;4988975;28;20225;-69
2022/07/10 05:42:48;;;;;;;0.90;0.10;;;16.60;99.90;;;;;;4988808;28;20146;-64
2022/07/10 05:45:15;;;;;;;0.17;0.10;;;16.60;99.90;;;;;;4987461;28;20061;-65
2022/07/10 05:47:42;;;;;;;0.75;0.10;;;16.60;99.90;;;;;;4988544;28;20500;-67
2022/07/10 05:50:09;;;;;;;0.28;0.00;;;16.60;99.90;;;;;;4988901;28;20050;-71
2022/07/10 05:52:36;;;;;;;0.20;0.00;;;16.60;99.90;;;;;;4987846;28;20532;-70
2022/07/10 05:55:03;;;;;;;0.20;0.10;;;16.60;99.90;;;;;;4989157;28;20136;-65
2022/07/10 05:57:31;;;;;;;0.00;0.00;;;16.60;99.90;;;;;;4985927;28;21066;-65
2022/07/10 05:59:58;;;;;;;0.20;0.10;;;16.50;99.90;;;;;;4989148;28;20050;-71
2022/07/10 06:02:25;;;;;;;1.17;0.15;;;16.50;99.90;;;;;;4988069;28;21040;-67
2022/07/10 06:04:52;;;;;;;0.00;0.00;;;16.40;99.90;;;;;;4977013;28;20152;-72
2022/07/10 06:07:19;;;;;;;0.15;0.08;;;16.40;99.90;;;;;;4984999;28;20243;-68
2022/07/10 06:09:46;;;;;;;1.10;0.10;;;16.30;99.90;;;;;;4988899;28;20054;-67
2022/07/10 06:12:15;;;;;;;0.32;0.08;;;16.20;99.90;;;;;;4988432;28;20039;-67
2022/07/10 06:14:42;;;;;;;0.25;0.00;;;16.20;99.90;;;;;;4988953;28;20137;-68
2022/07/10 06:17:09;;;;;;;0.50;0.10;;;16.20;99.90;;;;;;4986735;28;20049;-66
2022/07/10 06:19:36;;;;;;;0.52;0.00;;;16.20;99.90;;;;;;4988543;28;20221;-67
2022/07/10 06:24:49;;;;;;;0.20;0.10;;;16.30;99.90;;;;;;4988555;28;20069;-67
2022/07/10 06:27:16;;;;;;;0.10;0.10;;;16.30;99.90;;;;;;4984924;28;20050;-70
2022/07/10 06:29:43;;;;;;;0.68;0.10;;;16.40;99.90;;;;;;4988118;28;20120;-70
2022/07/10 06:32:10;;;;;;;0.08;0.00;;;16.40;99.90;;;;;;4987764;28;21125;-63
2022/07/10 06:34:37;;;;;;;0.00;0.00;;;16.50;99.90;;;;;;4988319;28;20076;-69
2022/07/10 06:37:05;;;;;;;0.30;0.00;;;16.50;99.90;;;;;;4989086;28;20069;-73
2022/07/10 06:39:36;;;;;;;0.70;0.10;;;16.50;99.90;;;;;;4987486;28;20073;-65
2022/07/10 06:42:03;;;;;;;0.25;0.25;;;16.60;99.90;;;;;;4985766;28;20399;-72
2022/07/10 06:44:37;;;;;;;0.32;0.22;;;16.60;99.90;;;;;;4987561;28;20058;-67
2022/07/10 06:49:50;;;;;;;1.48;0.15;;;16.60;99.90;;;;;;4987809;28;20058;-65
2022/07/10 06:52:17;;;;;;;0.88;0.10;;;16.70;99.90;;;;;;4988362;28;21502;-65
2022/07/10 06:54:44;;;;;;;0.13;0.00;;;16.70;99.90;;;;;;4988708;28;20552;-70
2022/07/10 06:57:12;;;;;;;0.80;0.30;;;16.60;99.90;;;;;;4985664;28;20151;-66
2022/07/10 06:59:39;;;;;;;0.10;0.10;;;16.60;99.90;;;;;;4987537;28;20050;-65
2022/07/10 07:02:07;;;;;;;0.17;0.17;;;16.60;99.90;;;;;;4987728;28;21455;-66
2022/07/10 07:04:34;;;;;;;0.38;0.20;;;16.60;99.90;;;;;;4988121;28;20144;-71
2022/07/10 07:07:02;;;;;;;1.30;0.32;;;16.70;99.90;;;;;;4988075;28;20437;-64
2022/07/10 07:09:29;;;;;;;0.00;0.00;;;16.70;99.90;;;;;;4986798;28;20113;-65
2022/07/10 07:11:56;;;;;;;0.22;0.05;;;16.70;99.90;;;;;;4986683;28;20540;-66
2022/07/10 07:14:23;;;;;;;0.47;0.10;;;16.80;99.90;;;;;;4987089;28;20805;-67
2022/07/10 07:25:17;;;;;;;0.20;0.03;;;16.80;99.90;;;;;;4986019;28;20140;-65
2022/07/10 07:27:44;;;;;;;0.10;0.10;;;16.90;99.90;;;;;;4987246;28;21452;-66
2022/07/10 07:30:17;;;;;;;0.10;0.10;;;16.90;99.90;;;;;;4987878;28;20081;-65
2022/07/10 07:32:45;;;;;;;0.88;0.38;;;17.00;99.90;;;;;;4987489;28;20076;-75
2022/07/10 07:35:14;;;;;;;0.45;0.00;;;17.00;99.90;;;;;;4985775;28;20042;-67
2022/07/10 07:37:45;;;;;;;2.30;0.10;;;17.00;99.90;;;;;;4987799;28;20140;-71
2022/07/10 07:40:19;;;;;;;0.17;0.10;;;16.90;99.90;;;;;;4988397;28;21049;-65
2022/07/10 07:42:47;;;;;;;0.10;0.00;;;16.90;99.90;;;;;;4985965;28;20092;-71
2022/07/10 07:45:14;;;;;;;1.35;0.10;;;16.90;99.90;;;;;;4999361;28;20133;-70
2022/07/10 07:47:53;;;;;;;2.20;0.25;;;17.00;99.90;;;;;;4987756;28;20133;-67
2022/07/10 07:50:22;;;;;;;0.20;0.10;;;17.10;99.90;;;;;;4987898;28;20533;-71
2022/07/10 07:52:49;;;;;;;0.52;0.20;;;17.20;99.90;;;;;;4989739;28;20050;-63
2022/07/10 07:55:19;;;;;;;0.40;0.17;;;17.30;99.90;;;;;;4987283;28;20050;-65
2022/07/10 07:57:46;;;;;;;0.10;0.10;;;17.20;99.90;;;;;;4985089;28;20056;-70
2022/07/10 08:00:17;;;;;;;0.70;0.38;;;17.20;99.90;;;;;;4987806;28;20877;-63
2022/07/10 08:02:44;;;;;;;0.03;0.00;;;17.10;99.90;;;;;;4987907;28;20066;-65
2022/07/10 08:05:11;;;;;;;2.83;0.30;;;17.10;99.90;;;;;;4985000;28;20053;-66
2022/07/10 08:07:44;;;;;;;0.25;0.00;;;17.20;99.90;;;;;;4988986;28;20093;-69
2022/07/10 08:10:13;;;;;;;0.10;0.00;;;17.10;99.90;;;;;;4988105;28;20558;-65
2022/07/10 08:12:42;;;;;;;0.00;0.00;;;17.10;99.90;;;;;;4987987;28;20054;-66
2022/07/10 08:15:10;;;;;;;0.10;0.08;;;17.20;99.90;;;;;;4988180;28;20132;-70
2022/07/10 08:17:38;;;;;;;0.77;0.50;;;17.10;99.90;;;;;;4974681;28;20058;-71
2022/07/10 08:20:07;;;;;;;1.05;0.10;;;17.00;99.90;;;;;;4984031;28;20086;-68
2022/07/10 08:22:34;;;;;;;0.10;0.00;;;17.00;99.90;;;;;;4988196;28;20432;-71
2022/07/10 08:25:01;;;;;;;0.13;0.05;;;17.00;99.90;;;;;;4987988;28;20560;-68
2022/07/10 08:27:28;;;;;;;0.17;0.10;;;17.00;99.90;;;;;;4985103;28;20057;-65
2022/07/10 08:29:55;;;;;;;0.40;0.10;;;17.00;99.90;;;;;;4990288;28;20133;-68
2022/07/10 08:32:22;;;;;;;1.35;0.08;;;16.90;99.90;;;;;;4987308;28;20157;-71
2022/07/10 08:34:49;;;;;;;0.10;0.03;;;16.90;99.90;;;;;;4987256;28;20057;-66
2022/07/10 08:37:16;;;;;;;0.35;0.20;;;17.00;99.90;;;;;;4986100;28;20077;-67
2022/07/10 08:39:43;;;;;;;0.32;0.00;;;17.00;99.90;;;;;;4988345;28;20112;-71
2022/07/10 08:42:10;;;;;;;0.82;0.10;;;17.10;99.90;;;;;;4989307;28;20143;-66
2022/07/10 08:44:37;;;;;;;1.30;0.00;;;16.90;99.90;;;;;;4987530;28;20488;-70
2022/07/10 08:47:05;;;;;;;0.00;0.00;;;17.00;99.90;;;;;;4987911;28;20145;-72
2022/07/10 08:49:35;;;;;;;0.20;0.10;;;16.90;99.90;;;;;;4986843;28;20054;-68
2022/07/10 08:52:12;;;;;;;0.00;0.00;;;16.70;99.90;;;;;;4992934;28;20435;-72
2022/07/10 08:54:39;;;;;;;0.38;0.10;;;16.60;99.90;;;;;;4990629;28;20076;-72
2022/07/10 08:57:06;;;;;;;3.60;0.30;;;16.70;99.90;;;;;;4989602;28;20070;-64
2022/07/10 08:59:33;;;;;;;0.75;0.10;;;16.70;99.90;;;;;;4990185;28;20659;-67
2022/07/10 09:02:00;;;;;;;0.10;0.10;;;16.90;99.90;;;;;;4990072;28;20112;-65
2022/07/10 09:04:28;;;;;;;1.40;0.00;;;16.90;99.90;;;;;;4990124;28;20053;-65
2022/07/10 09:06:55;;;;;;;0.08;0.00;;;16.90;99.90;;;;;;4991603;28;20124;-69
2022/07/10 09:09:23;;;;;;;0.65;0.10;;;17.10;99.90;;;;;;4990203;28;20069;-67
2022/07/10 09:11:58;;;;;;;0.17;0.10;;;16.90;99.90;;;;;;4991274;28;20130;-66
2022/07/10 09:14:32;;;;;;;0.15;0.05;;;17.00;99.90;;;;;;4991612;28;20047;-68
2022/07/10 09:17:03;;;;;;;0.10;0.10;;;16.90;99.90;;;;;;4991018;28;20165;-68
2022/07/10 09:19:30;;;;;;;0.00;0.00;;;16.90;99.90;;;;;;4989612;28;20058;-68
2022/07/10 09:22:07;;;;;;;0.00;0.00;;;17.00;99.90;;;;;;4990316;28;20051;-65
2022/07/10 09:24:45;;;;;;;0.47;0.10;;;17.10;99.90;;;;;;4992365;28;20081;-72
2022/07/10 09:27:15;;;;;;;15.10;0.85;;;17.10;99.90;;;;;;4988027;28;20081;-64
2022/07/10 09:29:47;;;;;;;0.10;0.00;;;17.10;99.90;;;;;;4991304;28;20070;-68
2022/07/10 09:32:15;;;;;;;0.00;0.00;;;17.20;99.90;;;;;;4990835;28;20165;-70
2022/07/10 09:34:46;;;;;;;0.10;0.03;;;17.40;99.90;;;;;;4992459;28;20118;-65
2022/07/10 09:37:23;;;;;;;0.10;0.00;;;17.30;99.90;;;;;;4990800;28;20081;-66
2022/07/10 09:40:03;;;;;;;0.00;0.00;;;17.20;99.90;;;;;;4992514;28;20244;-68
2022/07/10 09:42:32;;;;;;;1.17;0.10;;;17.20;99.90;;;;;;4990853;28;20078;-65
2022/07/10 09:45:17;;;;;;;0.20;0.20;;;17.30;99.90;;;;;;4992502;28;20054;-67
2022/07/10 09:47:58;;;;;;;0.28;0.10;;;17.20;99.90;;;;;;4990267;28;20466;-67
2022/07/10 09:50:29;;;;;;;2.70;0.10;;;17.20;99.90;;;;;;4992154;28;20432;-68
2022/07/10 09:53:02;;;;;;;0.00;0.00;;;17.00;99.90;;;;;;4991604;28;20089;-67
2022/07/10 09:55:34;;;;;;;0.32;0.10;;;17.10;99.90;;;;;;4989112;28;20180;-75
2022/07/10 09:58:24;;;;;;;1.13;0.20;;;17.20;99.90;;;;;;4990486;28;20614;-65
2022/07/10 10:00:52;;;;;;;0.20;0.00;;;17.30;99.90;;;;;;4990452;28;20492;-66
2022/07/10 10:03:20;;;;;;;0.00;0.00;;;17.20;99.90;;;;;;4988628;28;20053;-64
2022/07/10 10:06:14;;;;;;;0.00;0.00;;;17.30;99.90;;;;;;4991125;28;20716;-68
2022/07/10 10:08:46;;;;;;;0.25;0.20;;;17.50;99.90;;;;;;4990044;28;20131;-73
2022/07/10 10:11:21;;;;;;;0.52;0.10;;;17.50;99.90;;;;;;4988312;28;20046;-71
2022/07/10 10:13:49;;;;;;;0.00;0.00;;;17.50;99.90;;;;;;4990915;28;20426;-71
2022/07/10 10:16:20;;;;;;;0.00;0.00;;;17.50;99.90;;;;;;4991386;28;20086;-68
2022/07/10 10:21:34;;;;;;;0.00;0.00;;;17.30;99.90;;;;;;4988563;28;20050;-65
2022/07/10 10:24:02;;;;;;;3.53;0.38;;;17.40;99.90;;;;;;4989323;28;20041;-68
2022/07/10 10:26:29;;;;;;;0.25;0.25;;;17.50;99.90;;;;;;4991194;28;20081;-66
2022/07/10 10:28:58;;;;;;;0.10;0.10;;;17.60;99.90;;;;;;4989509;28;20141;-68
2022/07/10 10:31:30;;;;;;;0.10;0.10;;;17.70;99.90;;;;;;4987925;28;23006;-70
2022/07/10 10:34:00;;;;;;;0.80;0.10;;;17.70;99.90;;;;;;4988837;28;20460;-66
2022/07/10 10:36:45;;;;;;;0.10;0.10;;;17.80;99.90;;;;;;4989869;28;20108;-68
2022/07/10 10:39:21;;;;;;;0.10;0.10;;;17.80;99.90;;;;;;4987100;28;20057;-67
2022/07/10 10:41:52;;;;;;;0.20;0.20;;;17.80;99.90;;;;;;4989464;28;20053;-66
2022/07/10 10:44:23;;;;;;;0.10;0.10;;;17.50;99.90;;;;;;4988370;28;20050;-73
2022/07/10 10:46:50;;;;;;;0.10;0.10;;;17.50;99.90;;;;;;4988994;28;21322;-66
2022/07/10 10:49:18;;;;;;;0.08;0.08;;;17.50;99.90;;;;;;4987805;28;20153;-73
2022/07/10 10:52:02;;;;;;;0.82;0.40;;;17.60;99.90;;;;;;4990707;28;20132;-64
2022/07/10 10:54:57;;;;;;;3.03;0.30;;;17.80;99.90;;;;;;4990104;28;20085;-69
2022/07/10 10:57:43;;;;;;;0.17;0.10;;;17.70;99.90;;;;;;4985688;28;20066;-73
2022/07/10 11:00:14;;;;;;;0.38;0.03;;;17.60;99.90;;;;;;4989606;28;20061;-69
2022/07/10 11:02:43;;;;;;;3.47;0.40;;;17.60;99.90;;;;;;4988438;28;20097;-73
2022/07/10 11:05:18;;;;;;;1.35;0.15;;;17.70;99.90;;;;;;4986492;28;20081;-65
2022/07/10 11:07:54;;;;;;;0.10;0.10;;;17.90;99.90;;;;;;4988973;28;20487;-67
2022/07/10 11:10:30;;;;;;;0.22;0.10;;;18.00;99.90;;;;;;4982046;28;20100;-68
2022/07/10 11:13:02;;;;;;;1.23;0.20;;;18.00;99.90;;;;;;4985138;28;20066;-69
2022/07/10 11:15:32;;;;;;;0.30;0.20;;;18.00;99.90;;;;;;4987955;28;20196;-69
2022/07/10 11:17:59;;;;;;;;;;;18.20;99.90;;;;;;4988809;28;20461;-66
2022/07/10 11:20:31;;;;;;;0.30;0.20;;;18.00;99.90;;;;;;4990147;28;19984;-64
2022/07/10 11:23:12;;;;;;;0.50;0.13;;;18.00;99.90;;;;;;4989025;28;20073;-67
2022/07/10 11:25:49;;;;;;;0.35;0.15;;;18.00;99.90;;;;;;4988628;28;20054;-67
2022/07/10 11:28:24;;;;;;;2.00;0.13;;;17.80;99.90;;;;;;4989688;28;20069;-66
2022/07/10 11:30:55;;;;;;;0.20;0.10;;;17.80;99.90;;;;;;4990100;28;20046;-67
2022/07/10 11:33:22;;;;;;;2.47;0.20;;;17.90;99.90;;;;;;4987924;28;20053;-67
2022/07/10 11:35:51;;;;;;;0.10;0.10;;;18.00;99.90;;;;;;4987407;28;20089;-74
2022/07/10 11:38:20;;;;;;;0.13;0.13;;;18.20;99.90;;;;;;4988329;28;20420;-69
2022/07/10 11:40:47;;;;;;;0.20;0.10;;;18.20;99.90;;;;;;4988035;28;20216;-66
2022/07/10 11:43:17;;;;;;;0.13;0.10;;;18.20;99.90;;;;;;4985554;28;20082;-69
2022/07/10 11:45:44;;;;;;;0.20;0.20;;;18.00;99.90;;;;;;4988837;28;20069;-71
2022/07/10 11:48:18;;;;;;;4.53;0.10;;;18.20;99.90;;;;;;4990038;28;20449;-71
2022/07/10 11:50:45;;;;;;;0.20;0.20;;;18.10;99.90;;;;;;4989546;28;20098;-72
2022/07/10 11:53:13;;;;;;;0.75;0.20;;;17.90;99.90;;;;;;4985916;28;20155;-71
2022/07/10 11:55:43;;;;;;;0.20;0.10;;;17.90;99.90;;;;;;4989340;28;20456;-69
2022/07/10 11:58:14;;;;;;;1.25;0.20;;;18.10;99.90;;;;;;4988459;28;20066;-64
2022/07/10 12:00:41;;;;;;;0.32;0.32;;;18.20;99.90;;;;;;4988591;28;20129;-71
2022/07/10 12:03:21;;;;;;;0.60;0.22;;;18.40;99.90;;;;;;4987347;28;20070;-67
2022/07/10 12:05:55;;;;;;;0.20;0.10;;;18.20;99.90;;;;;;4988512;28;20069;-71
2022/07/10 12:08:23;;;;;;;0.20;0.10;;;18.30;99.90;;;;;;4989506;28;20136;-71
2022/07/10 12:10:50;;;;;;;0.08;0.03;;;18.20;99.90;;;;;;4990971;28;20227;-64
2022/07/10 12:13:17;;;;;;;0.55;0.20;;;18.20;99.90;;;;;;4985374;28;20073;-68
2022/07/10 12:15:45;;;;;;;0.10;0.10;;;18.30;99.90;;;;;;4989777;28;20085;-74
2022/07/10 12:18:20;;;;;;;1.58;0.10;;;18.30;99.90;;;;;;4989784;28;20049;-67
2022/07/10 12:20:49;;;;;;;0.28;0.00;;;18.40;99.90;;;;;;4990402;28;20053;-73
2022/07/10 12:23:18;;;;;;;0.13;0.13;;;18.50;99.90;;;;;;4987193;28;20074;-67
2022/07/10 12:25:50;;;;;;;0.40;0.10;;;18.60;99.90;;;;;;4992762;28;20401;-70
2022/07/10 12:28:18;;;;;;;0.10;0.10;;;18.80;99.90;;;;;;4992805;28;20133;-72
2022/07/10 12:30:49;;;;;;;0.40;0.00;;;18.80;99.90;;;;;;4993656;28;20054;-72
2022/07/10 12:33:20;;;;;;;0.20;0.00;;;18.70;99.90;;;;;;4990198;28;20086;-69
2022/07/10 12:35:56;;;;;;;0.00;0.00;;;18.90;99.90;;;;;;4995370;28;20145;-67
2022/07/10 12:38:28;;;;;;;0.35;0.10;;;18.90;99.90;;;;;;4992848;28;20057;-67
2022/07/10 12:41:12;;;;;;;0.77;0.22;;;18.80;99.90;;;;;;4993078;28;20503;-72
2022/07/10 12:43:42;;;;;;;0.25;0.10;;;18.60;99.90;;;;;;4990212;28;20073;-74
2022/07/10 12:46:16;;;;;;;0.47;0.10;;;18.50;99.90;;;;;;4991280;28;20065;-68
2022/07/10 12:48:59;;;;;;;0.13;0.10;;;18.70;99.90;;;;;;4992386;28;20038;-65
2022/07/10 12:51:28;;;;;;;0.10;0.10;;;18.70;99.90;;;;;;4990224;28;20201;-65
2022/07/10 12:54:34;;;;;;;0.20;0.10;;;18.90;99.90;;;;;;4991904;28;20508;-69
2022/07/10 12:57:02;;;;;;;0.00;0.00;;;19.00;99.90;;;;;;4990972;28;20050;-68
2022/07/10 12:59:29;;;;;;;0.28;0.10;;;19.10;99.90;;;;;;4990390;28;20181;-65
2022/07/10 13:01:56;;;;;;;0.10;0.00;;;19.20;99.90;;;;;;4991442;28;20133;-67
2022/07/10 13:04:26;;;;;;;0.15;0.10;;;19.40;99.90;;;;;;4991765;28;20169;-64
2022/07/10 13:06:54;;;;;;;;;;;19.50;99.90;;;;;;4992125;28;20152;-70
2022/07/10 13:09:23;;;;;;;0.80;0.10;;;19.40;99.90;;;;;;4990284;28;19965;-70
2022/07/10 13:11:54;;;;;;;0.30;0.00;;;19.50;99.90;;;;;;4991049;28;20105;-66
2022/07/10 13:14:21;;;;;;;0.52;0.10;;;19.30;99.90;;;;;;4991927;28;20115;-67
2022/07/10 13:16:48;;;;;;;0.13;0.03;;;19.20;99.90;;;;;;4991311;28;21306;-71
2022/07/10 13:19:15;;;;;;;0.55;0.20;;;19.30;99.90;;;;;;4989220;28;20060;-69